createdAt,value
2022-10-17T00:01:35.329Z,79.54
2022-10-17T00:04:04.650Z,79.62
2022-10-17T00:06:32.477Z,79.65
2022-10-17T00:09:00.320Z,79.71
2022-10-17T00:11:28.207Z,79.81
2022-10-17T00:13:57.251Z,79.80
2022-10-17T00:16:27.625Z,79.76
2022-10-17T00:18:56.241Z,79.91
2022-10-17T00:21:26.570Z,80.05
2022-10-17T00:23:55.194Z,79.68
2022-10-17T00:26:23.660Z,79.83
2022-10-17T00:28:53.321Z,80.06
2022-10-17T00:31:23.139Z,80.14
2022-10-17T00:33:51.476Z,80.00
2022-10-17T00:36:21.810Z,79.95
2022-10-17T00:38:53.358Z,80.07
2022-10-17T00:41:23.504Z,80.26
2022-10-17T00:43:58.086Z,80.00
2022-10-17T00:46:28.053Z,80.38
2022-10-17T00:48:58.264Z,80.09
2022-10-17T00:51:32.286Z,80.25
2022-10-17T00:54:03.842Z,80.24
2022-10-17T00:56:32.914Z,80.27
2022-10-17T00:59:01.010Z,80.40
2022-10-17T01:01:28.955Z,80.37
2022-10-17T01:03:59.677Z,80.20
2022-10-17T01:06:27.687Z,80.20
2022-10-17T01:08:55.846Z,80.46
2022-10-17T01:11:34.677Z,80.64
2022-10-17T01:14:10.345Z,80.66
2022-10-17T01:16:49.018Z,80.62
2022-10-17T01:19:36.843Z,80.62
2022-10-17T01:22:10.821Z,80.63
2022-10-17T01:25:08.727Z,80.80
2022-10-17T01:27:50.405Z,80.81
2022-10-17T01:30:37.884Z,80.27
2022-10-17T01:33:14.591Z,80.66
2022-10-17T01:35:48.091Z,80.63
2022-10-17T01:38:22.896Z,80.68
2022-10-17T01:40:57.345Z,80.92
2022-10-17T01:43:31.263Z,81.10
2022-10-17T01:46:02.808Z,81.02
2022-10-17T01:49:01.401Z,80.99
2022-10-17T01:51:34.642Z,80.81
2022-10-17T01:54:08.041Z,80.89
2022-10-17T01:56:37.580Z,81.13
2022-10-17T01:59:11.953Z,81.23
2022-10-17T02:01:42.515Z,80.93
2022-10-17T02:04:12.873Z,81.43
2022-10-17T02:06:40.913Z,81.47
2022-10-17T02:09:19.873Z,81.16
2022-10-17T02:12:05.015Z,81.19
2022-10-17T02:14:45.377Z,81.31
2022-10-17T02:17:22.352Z,81.25
2022-10-17T02:20:00.022Z,81.11
2022-10-17T02:22:38.916Z,81.33
2022-10-17T02:25:15.634Z,81.47
2022-10-17T02:27:49.855Z,81.16
2022-10-17T02:30:30.389Z,81.27
2022-10-17T02:33:02.375Z,81.52
2022-10-17T02:35:35.471Z,81.41
2022-10-17T02:38:09.427Z,81.59
2022-10-17T02:40:38.843Z,81.44
2022-10-17T02:43:06.674Z,81.84
2022-10-17T02:45:39.199Z,81.70
2022-10-17T02:48:12.100Z,81.79
2022-10-17T02:50:53.358Z,81.52
2022-10-17T02:53:29.164Z,81.58
2022-10-17T02:56:01.220Z,81.95
2022-10-17T02:58:36.337Z,81.70
2022-10-17T03:01:06.122Z,81.97
2022-10-17T03:03:34.314Z,81.68
2022-10-17T03:06:04.672Z,82.11
2022-10-17T03:08:32.625Z,82.12
2022-10-17T03:11:01.408Z,81.83
2022-10-17T03:13:31.752Z,81.88
2022-10-17T03:16:01.368Z,82.14
2022-10-17T03:18:29.247Z,82.12
2022-10-17T03:21:00.991Z,82.05
2022-10-17T03:23:30.737Z,82.28
2022-10-17T03:25:58.931Z,81.96
2022-10-17T03:28:28.026Z,82.27
2022-10-17T03:30:55.987Z,82.23
2022-10-17T03:33:23.906Z,82.01
2022-10-17T03:35:51.905Z,82.27
2022-10-17T03:38:19.802Z,82.17
2022-10-17T03:40:56.418Z,82.26
2022-10-17T03:43:24.408Z,82.36
2022-10-17T03:45:52.160Z,82.59
2022-10-17T03:48:22.287Z,82.70
2022-10-17T03:50:50.541Z,82.52
2022-10-17T03:53:18.566Z,82.54
2022-10-17T03:55:46.567Z,82.44
2022-10-17T03:58:15.771Z,82.31
2022-10-17T04:00:45.424Z,82.31
2022-10-17T04:03:17.113Z,82.87
2022-10-17T04:05:45.364Z,82.69
2022-10-17T04:08:13.243Z,82.49
2022-10-17T04:11:24.064Z,82.79
2022-10-17T04:13:56.360Z,82.88
2022-10-17T04:16:27.467Z,82.46
2022-10-17T04:19:05.071Z,82.55
2022-10-17T04:21:41.207Z,82.80
2022-10-17T04:24:12.119Z,82.61
2022-10-17T04:26:51.910Z,83.12
2022-10-17T04:29:22.804Z,82.71
2022-10-17T04:31:53.001Z,82.52
2022-10-17T04:34:26.385Z,82.46
2022-10-17T04:37:19.785Z,82.67
2022-10-17T04:39:50.023Z,82.82
2022-10-17T04:42:18.001Z,82.86
2022-10-17T04:44:48.212Z,82.89
2022-10-17T04:47:18.702Z,82.66
2022-10-17T04:49:47.546Z,82.85
2022-10-17T04:52:17.094Z,82.94
2022-10-17T04:54:47.138Z,82.94
2022-10-17T04:57:15.402Z,82.77
2022-10-17T04:59:58.647Z,83.27
2022-10-17T05:02:49.046Z,82.96
2022-10-17T05:05:18.597Z,82.89
2022-10-17T05:07:49.370Z,83.16
2022-10-17T05:10:24.115Z,83.22
2022-10-17T05:12:54.349Z,83.32
2022-10-17T05:15:26.541Z,83.22
2022-10-17T05:17:56.933Z,82.98
2022-10-17T05:20:26.421Z,83.34
2022-10-17T05:22:55.197Z,83.49
2022-10-17T05:25:24.308Z,83.40
2022-10-17T05:27:54.923Z,83.25
2022-10-17T05:30:23.232Z,83.37
2022-10-17T05:32:56.978Z,83.61
2022-10-17T05:35:24.957Z,83.33
2022-10-17T05:37:53.806Z,83.76
2022-10-17T05:40:23.574Z,83.81
2022-10-17T05:42:53.999Z,83.56
2022-10-17T05:45:24.716Z,83.55
2022-10-17T05:47:52.996Z,83.48
2022-10-17T05:50:24.314Z,83.81
2022-10-17T05:53:09.603Z,83.90
2022-10-17T05:55:42.393Z,83.85
2022-10-17T05:58:17.667Z,83.51
2022-10-17T06:00:59.895Z,84.15
2022-10-17T06:03:28.864Z,83.88
2022-10-17T06:06:03.818Z,83.95
2022-10-17T06:08:31.748Z,83.83
2022-10-17T06:11:01.700Z,84.05
2022-10-17T06:13:32.075Z,84.07
2022-10-17T06:16:03.901Z,83.87
2022-10-17T06:18:31.910Z,83.87
2022-10-17T06:21:05.480Z,84.16
2022-10-17T06:23:34.569Z,84.19
2022-10-17T06:26:10.866Z,83.98
2022-10-17T06:28:39.182Z,84.26
2022-10-17T06:31:08.329Z,84.03
2022-10-17T06:33:37.445Z,84.04
2022-10-17T06:36:09.595Z,84.34
2022-10-17T06:38:37.674Z,84.32
2022-10-17T06:41:13.785Z,84.25
2022-10-17T06:43:45.610Z,84.40
2022-10-17T06:46:45.727Z,84.20
2022-10-17T06:49:16.945Z,84.27
2022-10-17T06:52:12.879Z,84.45
2022-10-17T06:54:52.992Z,84.42
2022-10-17T06:57:35.402Z,84.60
2022-10-17T07:00:23.311Z,84.26
2022-10-17T07:02:55.016Z,84.73
2022-10-17T07:05:22.923Z,84.45
2022-10-17T07:07:52.194Z,84.47
2022-10-17T07:10:20.308Z,84.62
2022-10-17T07:12:48.181Z,84.63
2022-10-17T07:15:16.301Z,84.62
2022-10-17T07:17:44.177Z,84.67
2022-10-17T07:20:12.603Z,84.84
2022-10-17T07:22:40.516Z,84.85
2022-10-17T07:25:16.812Z,84.83
2022-10-17T07:27:54.025Z,84.88
2022-10-17T08:09:30.572Z,85.01
2022-10-17T08:12:00.332Z,85.08
2022-10-17T08:14:28.252Z,84.96
2022-10-17T08:16:56.280Z,85.10
2022-10-17T08:19:24.382Z,85.07
2022-10-17T08:21:52.611Z,85.04
2022-10-17T08:24:20.487Z,85.13
2022-10-17T08:26:49.605Z,85.02
2022-10-17T08:29:21.384Z,84.98
2022-10-17T08:31:52.373Z,85.10
2022-10-17T08:34:24.389Z,85.03
2022-10-17T08:36:52.159Z,84.88
2022-10-17T08:39:20.190Z,85.09
2022-10-17T08:41:59.943Z,84.97
2022-10-17T08:44:40.943Z,84.78
2022-10-17T08:47:15.494Z,84.83
2022-10-17T08:49:51.334Z,84.73
2022-10-17T08:52:26.482Z,84.82
2022-10-17T08:54:54.558Z,84.76
2022-10-17T08:57:22.554Z,84.76
2022-10-17T08:59:54.617Z,84.84
2022-10-17T09:02:35.567Z,84.76
2022-10-17T09:05:31.478Z,84.65
2022-10-17T09:08:10.201Z,84.69
2022-10-17T09:10:49.978Z,84.56
2022-10-17T09:13:38.124Z,84.61
2022-10-17T09:16:20.598Z,84.63
2022-10-17T09:18:59.867Z,84.55
2022-10-17T09:21:37.872Z,84.60
2022-10-17T09:24:15.801Z,84.58
2022-10-17T09:26:46.726Z,84.48
2022-10-17T09:29:21.261Z,84.43
2022-10-17T09:31:59.108Z,84.39
2022-10-17T09:34:30.112Z,84.41
2022-10-17T09:37:00.050Z,84.41
2022-10-17T09:39:31.827Z,84.25
2022-10-17T09:42:01.832Z,84.33
2022-10-17T09:44:33.033Z,84.32
2022-10-17T09:47:16.372Z,84.34
2022-10-17T09:49:46.113Z,84.12
2022-10-17T09:52:17.497Z,84.12
2022-10-17T09:54:47.856Z,84.17
2022-10-17T09:57:17.487Z,84.19
2022-10-17T09:59:48.406Z,84.06
2022-10-17T10:02:20.777Z,83.94
2022-10-17T10:05:05.041Z,83.88
2022-10-17T10:07:36.929Z,83.95
2022-10-17T10:10:07.446Z,83.83
2022-10-17T10:12:38.882Z,83.94
2022-10-17T10:15:35.979Z,83.86
2022-10-17T10:18:25.505Z,83.74
2022-10-17T10:21:06.324Z,83.64
2022-10-17T10:23:34.793Z,83.46
2022-10-17T10:26:04.829Z,83.72
2022-10-17T10:28:35.611Z,83.82
2022-10-17T10:31:06.063Z,83.60
2022-10-17T10:33:41.443Z,83.46
2022-10-17T10:36:10.032Z,83.24
2022-10-17T10:38:42.476Z,83.52
2022-10-17T10:41:12.615Z,83.36
2022-10-17T10:43:44.226Z,83.56
2022-10-17T10:46:19.685Z,83.28
2022-10-17T10:48:54.937Z,83.27
2022-10-17T10:51:28.851Z,83.41
2022-10-17T10:54:03.292Z,83.15
2022-10-17T10:56:36.484Z,82.97
2022-10-17T10:59:11.361Z,83.01
2022-10-17T11:01:45.464Z,83.11
2022-10-17T11:04:27.351Z,82.71
2022-10-17T11:07:03.167Z,82.76
2022-10-17T11:09:43.694Z,82.74
2022-10-17T11:12:18.028Z,82.80
2022-10-17T11:14:50.643Z,82.74
2022-10-17T11:17:28.952Z,82.66
2022-10-17T11:20:07.923Z,82.43
2022-10-17T11:22:42.370Z,82.11
2022-10-17T11:25:23.478Z,82.24
2022-10-17T11:27:51.556Z,82.03
2022-10-17T11:30:19.679Z,82.05
2022-10-17T11:32:53.782Z,81.74
2022-10-17T11:35:26.502Z,82.02
2022-10-17T11:38:00.475Z,81.61
2022-10-17T11:40:32.174Z,81.82
2022-10-17T11:43:03.296Z,81.46
2022-10-17T11:45:37.878Z,81.40
2022-10-17T11:48:13.197Z,81.67
2022-10-17T11:53:47.693Z,81.22
2022-10-17T11:56:21.386Z,81.21
2022-10-17T11:58:58.189Z,81.04
2022-10-17T12:01:33.830Z,80.69
2022-10-17T12:04:23.252Z,80.70
2022-10-17T12:07:10.825Z,80.37
2022-10-17T12:09:46.325Z,80.52
2022-10-17T12:12:27.037Z,80.38
2022-10-17T12:14:55.792Z,80.22
2022-10-17T12:17:32.970Z,80.42
2022-10-17T12:20:30.577Z,80.25
2022-10-17T12:23:18.265Z,80.20
2022-10-17T12:25:51.481Z,79.90
2022-10-17T12:28:28.496Z,79.81
2022-10-17T12:31:00.281Z,79.56
2022-10-17T12:33:34.898Z,79.45
2022-10-17T12:36:46.104Z,79.30
2022-10-17T12:39:46.464Z,79.20
2022-10-17T12:42:51.920Z,79.28
2022-10-17T12:45:47.294Z,79.11
2022-10-17T12:48:35.374Z,78.79
2022-10-17T12:53:59.578Z,78.87
2022-10-17T12:56:37.814Z,78.63
2022-10-17T12:59:16.454Z,78.23
2022-10-17T13:01:48.088Z,78.26
2022-10-17T13:04:16.908Z,77.93
2022-10-17T13:06:48.326Z,77.97
2022-10-17T13:09:27.499Z,77.95
2022-10-17T13:11:58.023Z,77.85
2022-10-17T13:14:28.523Z,77.80
2022-10-17T13:16:58.506Z,77.59
2022-10-17T13:19:30.009Z,77.56
2022-10-17T13:22:06.293Z,77.17
2022-10-17T13:24:36.683Z,77.20
2022-10-17T13:27:06.179Z,76.99
2022-10-17T13:29:35.619Z,76.80
2022-10-17T13:32:05.812Z,76.85
2022-10-17T13:34:35.221Z,76.73
2022-10-17T13:37:06.137Z,76.67
2022-10-17T13:39:52.835Z,76.54
2022-10-17T13:42:26.201Z,76.56
2022-10-17T13:44:56.756Z,76.25
2022-10-17T13:47:26.536Z,76.19
2022-10-17T13:49:55.869Z,76.11
2022-10-17T13:52:27.979Z,75.90
2022-10-17T13:55:06.445Z,76.15
2022-10-17T13:57:34.417Z,75.86
2022-10-17T14:00:12.540Z,75.59
2022-10-17T14:02:42.512Z,75.44
2022-10-17T14:05:18.984Z,75.43
2022-10-17T14:10:42.263Z,75.11
2022-10-17T14:13:22.011Z,75.11
2022-10-17T14:15:52.161Z,74.80
2022-10-17T14:18:23.007Z,74.55
2022-10-17T14:23:42.292Z,74.54
2022-10-17T14:26:13.703Z,74.30
2022-10-17T14:28:42.936Z,74.37
2022-10-17T14:31:20.845Z,74.28
2022-10-17T14:33:51.099Z,74.27
2022-10-17T14:36:20.465Z,73.96
2022-10-17T14:38:50.961Z,74.15
2022-10-17T14:44:23.517Z,73.78
2022-10-17T14:46:57.773Z,73.55
2022-10-17T14:49:32.592Z,73.48
2022-10-17T14:52:30.064Z,73.36
2022-10-17T14:54:59.431Z,73.48
2022-10-17T14:57:35.862Z,73.30
2022-10-17T15:00:04.303Z,73.11
2022-10-17T15:02:33.685Z,72.92
2022-10-17T15:05:01.653Z,72.97
2022-10-17T15:07:29.493Z,72.95
2022-10-17T15:09:57.302Z,72.77
2022-10-17T15:12:26.491Z,72.88
2022-10-17T15:14:55.145Z,72.42
2022-10-17T15:17:27.196Z,72.34
2022-10-17T15:19:56.967Z,72.28
2022-10-17T15:22:25.377Z,72.35
2022-10-17T15:24:53.260Z,72.19
2022-10-17T15:27:23.021Z,72.40
2022-10-17T15:29:52.826Z,72.30
2022-10-17T15:32:20.711Z,71.89
2022-10-17T15:34:48.600Z,71.89
2022-10-17T15:37:21.939Z,71.99
2022-10-17T15:39:53.521Z,71.73
2022-10-17T15:42:22.778Z,71.65
2022-10-17T15:44:50.781Z,71.70
2022-10-17T15:47:25.508Z,71.54
2022-10-17T15:50:19.154Z,71.49
2022-10-17T15:52:50.836Z,71.19
2022-10-17T15:55:19.648Z,71.12
2022-10-17T15:57:49.111Z,71.29
2022-10-17T16:00:19.423Z,71.37
2022-10-17T16:02:47.724Z,71.36
2022-10-17T16:05:17.995Z,70.74
2022-10-17T16:07:46.802Z,70.88
2022-10-17T16:10:17.109Z,70.88
2022-10-17T16:12:45.432Z,70.83
2022-10-17T16:15:15.497Z,70.69
2022-10-17T16:17:43.841Z,70.76
2022-10-17T16:20:13.498Z,70.80
2022-10-17T16:22:42.755Z,70.50
2022-10-17T16:25:20.459Z,70.42
2022-10-17T16:27:50.937Z,70.50
2022-10-17T16:30:19.642Z,70.22
2022-10-17T16:32:48.137Z,70.37
2022-10-17T16:35:19.458Z,70.39
2022-10-17T16:37:47.560Z,70.32
2022-10-17T16:40:16.699Z,70.30
2022-10-17T16:42:46.261Z,70.24
2022-10-17T16:45:20.731Z,70.35
2022-10-17T16:47:49.727Z,69.82
2022-10-17T16:50:18.464Z,69.98
2022-10-17T16:52:46.418Z,69.98
2022-10-17T16:55:14.243Z,70.17
2022-10-17T16:57:45.972Z,70.13
2022-10-17T17:00:16.147Z,70.06
2022-10-17T17:02:44.364Z,69.68
2022-10-17T17:05:12.748Z,69.96
2022-10-17T17:07:40.728Z,70.13
2022-10-17T17:10:09.454Z,69.97
2022-10-17T17:12:37.851Z,69.71
2022-10-17T17:15:07.590Z,70.07
2022-10-17T17:17:54.880Z,69.63
2022-10-17T17:20:23.715Z,69.87
2022-10-17T17:22:52.275Z,69.86
2022-10-17T17:25:20.190Z,69.79
2022-10-17T17:27:48.210Z,69.49
2022-10-17T17:30:17.594Z,69.61
2022-10-17T17:32:45.491Z,69.59
2022-10-17T17:35:13.377Z,69.47
2022-10-17T17:37:41.273Z,69.61
2022-10-17T17:40:10.023Z,69.65
2022-10-17T17:42:37.908Z,69.62
2022-10-17T17:45:06.711Z,69.66
2022-10-17T17:47:35.960Z,69.37
2022-10-17T17:50:04.240Z,69.70
2022-10-17T17:52:32.302Z,69.52
2022-10-17T17:55:00.283Z,69.33
2022-10-17T17:57:30.314Z,69.60
2022-10-17T17:59:58.408Z,69.29
2022-10-17T18:02:26.490Z,69.42
2022-10-17T18:04:55.762Z,69.45
2022-10-17T18:07:24.668Z,69.27
2022-10-17T18:09:52.482Z,69.48
2022-10-17T18:12:20.465Z,69.42
2022-10-17T18:14:48.843Z,69.45
2022-10-17T18:17:16.731Z,69.48
2022-10-17T18:19:44.560Z,69.40
2022-10-17T18:22:14.038Z,69.48
2022-10-17T18:24:42.609Z,69.36
2022-10-17T18:27:12.680Z,69.46
2022-10-17T18:29:40.530Z,69.45
2022-10-17T18:32:08.565Z,69.47
2022-10-17T18:34:36.463Z,69.49
2022-10-17T18:37:04.337Z,69.39
2022-10-17T18:39:33.553Z,69.43
2022-10-17T18:42:01.413Z,69.50
2022-10-17T18:44:29.425Z,69.41
2022-10-17T18:47:02.933Z,69.39
2022-10-17T18:49:32.544Z,69.44
2022-10-17T18:52:00.561Z,69.42
2022-10-17T18:54:29.598Z,69.42
2022-10-17T18:56:58.818Z,69.81
2022-10-17T18:59:26.656Z,69.72
2022-10-17T19:01:54.560Z,69.70
2022-10-17T19:04:22.703Z,69.75
2022-10-17T19:06:50.473Z,69.70
2022-10-17T19:09:18.887Z,69.71
2022-10-17T19:11:46.929Z,69.71
2022-10-17T19:14:16.254Z,69.81
2022-10-17T19:16:45.799Z,69.75
2022-10-17T19:19:15.996Z,69.84
2022-10-17T19:21:44.102Z,69.78
2022-10-17T19:24:13.899Z,69.79
2022-10-17T19:26:43.670Z,69.91
2022-10-17T19:29:14.248Z,69.98
2022-10-17T19:31:44.144Z,70.09
2022-10-17T19:34:13.146Z,69.90
2022-10-17T19:36:41.425Z,69.98
2022-10-17T19:39:16.324Z,70.03
2022-10-17T19:41:45.319Z,69.96
2022-10-17T19:44:13.912Z,70.20
2022-10-17T19:46:44.345Z,70.11
2022-10-17T19:49:12.799Z,70.33
2022-10-17T19:51:40.908Z,70.17
2022-10-17T19:54:08.708Z,70.33
2022-10-17T19:56:38.067Z,70.19
2022-10-17T19:59:06.442Z,70.46
2022-10-17T20:01:38.858Z,70.38
2022-10-17T20:04:08.752Z,70.47
2022-10-17T20:06:36.710Z,70.45
2022-10-17T20:09:05.193Z,70.56
2022-10-17T20:11:33.343Z,70.45
2022-10-17T20:14:02.063Z,70.58
2022-10-17T20:16:32.167Z,70.64
2022-10-17T20:19:06.627Z,70.79
2022-10-17T20:21:36.652Z,70.69
2022-10-17T20:24:06.868Z,70.66
2022-10-17T20:26:38.710Z,70.80
2022-10-17T20:29:10.900Z,71.00
2022-10-17T20:31:40.218Z,70.98
2022-10-17T20:34:08.208Z,71.00
2022-10-17T20:36:37.762Z,70.76
2022-10-17T20:39:07.324Z,71.05
2022-10-17T20:41:35.712Z,71.07
2022-10-17T20:44:03.798Z,71.04
2022-10-17T20:46:44.760Z,71.07
2022-10-17T20:49:16.538Z,71.22
2022-10-17T20:51:46.066Z,71.32
2022-10-17T20:54:14.074Z,71.23
2022-10-17T20:56:42.064Z,71.47
2022-10-17T20:59:13.111Z,71.57
2022-10-17T21:01:41.163Z,71.53
2022-10-17T21:04:43.983Z,71.41
2022-10-17T21:06:59.228Z,71.46
2022-10-17T21:09:27.287Z,71.64
2022-10-17T21:11:55.967Z,71.77
2022-10-17T21:14:25.604Z,71.53
2022-10-17T21:16:53.712Z,71.58
2022-10-17T21:19:22.676Z,71.78
2022-10-17T21:21:51.398Z,71.63
2022-10-17T21:24:20.888Z,71.83
2022-10-17T21:26:55.363Z,71.74
2022-10-17T21:29:24.056Z,71.95
2022-10-17T21:31:52.454Z,71.94
2022-10-17T21:34:23.800Z,71.96
2022-10-17T21:36:52.356Z,72.19
2022-10-17T21:39:24.176Z,72.19
2022-10-17T21:41:53.083Z,72.05
2022-10-17T21:44:23.543Z,72.10
2022-10-17T21:46:52.382Z,72.33
2022-10-17T21:49:22.553Z,72.35
2022-10-17T21:51:51.336Z,72.24
2022-10-17T21:54:22.993Z,72.39
2022-10-17T21:56:51.635Z,72.53
2022-10-17T21:59:19.408Z,72.46
2022-10-17T22:01:47.616Z,72.41
2022-10-17T22:06:40.797Z,72.76
2022-10-17T22:09:12.808Z,72.68
2022-10-17T22:11:40.846Z,72.59
2022-10-17T22:14:12.755Z,72.84
2022-10-17T22:16:42.442Z,72.98
2022-10-17T22:19:11.943Z,72.80
2022-10-17T22:21:41.294Z,73.01
2022-10-17T22:24:11.745Z,72.97
2022-10-17T22:26:40.386Z,72.97
2022-10-17T22:29:09.345Z,73.09
2022-10-17T22:31:38.052Z,73.12
2022-10-17T22:34:08.083Z,73.10
2022-10-17T22:36:36.257Z,73.40
2022-10-17T22:39:06.223Z,73.29
2022-10-17T22:41:34.125Z,73.37
2022-10-17T22:44:02.258Z,73.40
2022-10-17T22:46:30.132Z,73.41
2022-10-17T22:48:58.018Z,73.52
2022-10-17T22:51:26.079Z,73.67
2022-10-17T22:53:53.854Z,73.70
2022-10-17T22:56:24.221Z,73.56
2022-10-17T22:58:53.096Z,73.80
2022-10-17T23:01:22.987Z,73.74
2022-10-17T23:03:51.517Z,73.90
2022-10-17T23:06:20.041Z,73.87
2022-10-17T23:08:48.507Z,73.89
2022-10-17T23:11:17.048Z,73.87
2022-10-17T23:13:46.325Z,74.09
2022-10-17T23:16:14.223Z,74.07
2022-10-17T23:18:43.640Z,73.91
2022-10-17T23:21:11.828Z,74.23
2022-10-17T23:23:39.852Z,74.18
2022-10-17T23:26:10.280Z,74.25
2022-10-17T23:28:38.412Z,74.46
2022-10-17T23:31:16.574Z,74.28
2022-10-17T23:33:46.130Z,74.46
2022-10-17T23:36:15.258Z,74.43
2022-10-17T23:38:44.508Z,74.28
2022-10-17T23:41:12.881Z,74.71
2022-10-17T23:43:41.535Z,74.57
2022-10-17T23:46:11.723Z,74.65
2022-10-17T23:48:41.693Z,74.71
2022-10-17T23:51:10.552Z,74.79
2022-10-17T23:53:38.720Z,74.81
2022-10-17T23:56:08.026Z,74.86
2022-10-17T23:58:35.883Z,75.05
